Flight Track Log - Related Links

Times and Time Zones

All times are in EDT time to prevent confusion due to time zone crossing. See the EGF4174 flight status page for this flight to view local times or setup timezone preferences in your user account.

Time Position Orientation Groundspeed Altitude Reporting Facility
EDT Latitude Longitude Course Direction KTS MPH feet Rate Location/Type
Fri 04:56:37 PM 43.1075 -76.1347 286° West 151 174 1,100  Level Boston Center
Fri 04:57:14 PM 43.1081 -76.1803 271° West 171 197 2,500 2,645 Climbing Boston Center
Fri 04:59:00 PM 43.1833 -76.4229 270° West  Level FlightAware Approximate
Fri 04:59:09 PM 43.1528 -76.3169 294° West 216 249 7,800  Level Cleveland Center
Fri 05:00:00 PM 43.2040 -76.5280 281° West  Level FlightAware Approximate
Fri 05:00:09 PM 43.1806 -76.3947 296° West 221 254 10,200  Level Cleveland Center
Fri 05:01:00 PM 43.2222 -76.6425 286° West  Level FlightAware Approximate
Fri 05:01:09 PM 43.2092 -76.4925 292° West 245 282 11,400  Level Cleveland Center
Fri 05:02:09 PM 43.2175 -76.6117 276° West 284 327 12,500 1,050 Climbing Cleveland Center
Fri 05:03:09 PM 43.2158 -76.7458 269° West 322 371 13,500 1,050 Climbing Cleveland Center
Fri 05:04:09 PM 43.2139 -76.8797 269° West 347 399 14,600 1,050 Climbing Cleveland Center
Fri 05:05:09 PM 43.2119 -77.0194 269° West 365 420 15,600 1,000 Climbing Cleveland Center
Fri 05:06:09 PM 43.2136 -77.1447 271° West 365 420 16,600 1,000 Climbing Cleveland Center
Fri 05:07:09 PM 43.2094 -77.2847 268° West 365 420 17,600 800 Climbing Cleveland Center
Fri 05:08:09 PM 43.2092 -77.4242 270° West 365 420 18,200 800 Climbing Cleveland Center
Fri 05:09:09 PM 43.1983 -77.5672 264° West 365 420 19,200 1,000 Climbing Cleveland Center
Fri 05:10:09 PM 43.1811 -77.7075 260° West 370 426 20,200 1,000 Climbing Cleveland Center
Fri 05:11:09 PM 43.1636 -77.8508 261° West 375 432 21,200 1,000 Climbing Cleveland Center
Fri 05:12:09 PM 43.1503 -77.9994 263° West 387 445 22,200 1,000 Climbing Cleveland Center
Fri 05:13:09 PM 43.1517 -78.1472 271° West 387 445 23,200 1,000 Climbing Cleveland Center
Fri 05:14:09 PM 43.1503 -78.2897 269° West 387 445 24,200 1,050 Climbing Cleveland Center
Fri 05:15:09 PM 43.1489 -78.4347 269° West 387 445 25,300 1,050 Climbing Cleveland Center
Fri 05:16:09 PM 43.1475 -78.5828 269° West 387 445 26,300 1,000 Climbing Cleveland Center
Fri 05:17:09 PM 43.1456 -78.7253 269° West 387 445 27,300 1,000 Climbing Cleveland Center
Fri 05:18:09 PM 43.1436 -78.8647 269° West 382 440 28,300 1,069 Climbing Cleveland Center
Fri 05:18:50 PM 43.1333 -78.9500 261° West 370 426 29,100 1,129 Climbing Toronto Center
Fri 05:19:50 PM 43.1000 -79.0667 249° West 360 414 30,200 1,050 Climbing Toronto Center
Fri 05:20:50 PM 43.0167 -79.1833 226° Southwest 380 437 31,200 1,000 Climbing Toronto Center
Fri 05:21:50 PM 43.0167 -79.3167 270° West 370 426 32,200 1,000 Climbing Toronto Center
Fri 05:22:50 PM 43.0167 -79.4500 270° West 370 426 33,200 1,050 Climbing Toronto Center
Fri 05:23:50 PM 43.0167 -79.6167 270° West 370 426 34,300 1,000 Climbing Toronto Center
Fri 05:24:50 PM 43.0167 -79.7500 270° West 360 414 35,200 850 Climbing Toronto Center
Fri 05:25:50 PM 43.0167 -79.8667 270° West 360 414 36,000 400 Climbing Toronto Center
Fri 05:26:50 PM 43.0167 -80.0167 270° West 380 437 36,000  Level Toronto Center
Fri 05:27:50 PM 43.0167 -80.1500 270° West 380 437 36,000  Level Toronto Center
Fri 05:28:50 PM 43.0167 -80.3000 270° West 360 414 36,000  Level Toronto Center
Fri 05:29:50 PM 43.0167 -80.4333 270° West 350 403 36,000  Level Toronto Center
Fri 05:30:50 PM 43.0167 -80.5667 270° West 340 391 36,000  Level Toronto Center
Fri 05:31:50 PM 43.0167 -80.6833 270° West 340 391 36,000  Level Toronto Center
Fri 05:32:50 PM 43.0000 -80.8167 260° West 340 391 36,000  Level Toronto Center
Fri 05:33:50 PM 43.0000 -80.9500 270° West 340 391 36,000  Level Toronto Center
Fri 05:34:50 PM 43.0000 -81.0667 270° West 340 391 36,000  Level Toronto Center
Fri 05:35:50 PM 43.0000 -81.2000 270° West 350 403 36,000  Level Toronto Center
Fri 05:36:50 PM 43.0000 -81.3500 270° West 360 414 36,000  Level Toronto Center
Fri 05:37:50 PM 43.0000 -81.4833 270° West 360 414 36,000  Level Toronto Center
Fri 05:38:50 PM 43.0000 -81.6167 270° West 360 414 36,000  Level Toronto Center
Fri 05:39:50 PM 43.0000 -81.7500 270° West 360 414 36,000  Level Toronto Center
Fri 05:40:50 PM 43.0000 -81.8833 270° West 360 414 36,000  Level Toronto Center
Fri 05:41:50 PM 42.9833 -82.0333 261° West 360 414 36,000  Level Toronto Center
Fri 05:42:50 PM 42.9833 -82.1667 270° West 360 414 36,000  Level Toronto Center
Fri 05:43:50 PM 42.9833 -82.3167 270° West 370 426 36,000  Level Toronto Center
Fri 05:44:50 PM 42.9833 -82.4667 270° West 380 437 36,000  Level Toronto Center
Fri 05:45:50 PM 42.9833 -82.6000 270° West 370 426 36,000 -233 Level Toronto Center
Fri 05:46:33 PM 42.9933 -82.6864 279° West 380 437 35,600 -816 Descending Cleveland Center
Fri 05:47:33 PM 42.9886 -82.8197 267° West 368 423 34,600 -1,000 Descending Cleveland Center
Fri 05:48:33 PM 42.9861 -82.9531 269° West 361 415 33,600 -1,000 Descending Cleveland Center
Fri 05:49:33 PM 42.9833 -83.0806 268° West 350 403 32,600 -800 Descending Cleveland Center
Fri 05:50:33 PM 42.9803 -83.2139 268° West 350 403 32,000 -300 Descending Cleveland Center
Fri 05:51:33 PM 42.9772 -83.3500 268° West 350 403 32,000  Level Cleveland Center
Fri 05:52:33 PM 42.9717 -83.4861 267° West 350 403 32,000  Level Cleveland Center
Fri 05:53:33 PM 42.9703 -83.6250 269° West 360 414 32,000  Level Cleveland Center
Fri 05:54:33 PM 42.9625 -83.7636 266° West 365 420 32,000  Level Cleveland Center
Fri 05:55:33 PM 42.9478 -83.9075 262° West 371 427 32,000  Level Cleveland Center
Fri 05:56:33 PM 42.9375 -84.0517 264° West 376 433 32,000  Level Cleveland Center
Fri 05:57:33 PM 42.9228 -84.1928 262° West 381 438 32,000  Level Cleveland Center
Fri 05:58:33 PM 42.9072 -84.3478 262° West 381 438 32,000  Level Cleveland Center
Fri 05:59:06 PM 42.9031 -84.3961 263° West 377 434 32,000  Level Chicago Center
Fri 06:00:08 PM 42.8861 -84.5639 262° West 373 429 32,000  Level Chicago Center
Fri 06:01:10 PM 42.8711 -84.7028 262° West 372 428 32,000  Level Chicago Center
Fri 06:02:12 PM 42.8567 -84.8422 262° West 370 426 32,000  Level Chicago Center
Fri 06:03:14 PM 42.8417 -84.9806 262° West 371 427 32,000  Level Chicago Center
Fri 06:04:16 PM 42.8283 -85.1200 263° West 371 427 32,000  Level Chicago Center
Fri 06:05:18 PM 42.8119 -85.2594 261° West 372 428 32,000 -871 Level Chicago Center
Fri 06:06:20 PM 42.7942 -85.4303 262° West 378 435 30,200 -1,597 Descending Chicago Center
Fri 06:07:22 PM 42.7739 -85.5750 259° West 386 444 28,700 -1,452 Descending Chicago Center
Fri 06:08:24 PM 42.7458 -85.7228 256° West 398 458 27,200 -1,296 Descending Chicago Center
Fri 06:09:27 PM 42.7186 -85.8722 256° West 404 465 26,000 -1,104 Descending Chicago Center
Fri 06:10:29 PM 42.6922 -86.0203 256° West 401 461 24,900 -1,065 Descending Chicago Center
Fri 06:11:31 PM 42.6647 -86.1692 256° West 402 463 23,800 -1,210 Descending Chicago Center
Fri 06:12:33 PM 42.6375 -86.3181 256° West 405 466 22,400 -1,935 Descending Chicago Center
Fri 06:13:35 PM 42.6039 -86.4911 255° West 397 457 19,800 -2,129 Descending Chicago Center
Fri 06:14:37 PM 42.5783 -86.6306 256° West 384 442 18,000 -1,984 Descending Chicago Center
Fri 06:15:39 PM 42.5519 -86.7631 255° West 365 420 15,700 -2,177 Descending Chicago Center
Fri 06:16:41 PM 42.5189 -86.8794 249° West 335 386 13,500 -2,129 Descending Chicago Center
Fri 06:17:43 PM 42.4881 -86.9914 250° West 320 368 11,300 -1,645 Descending Chicago Center
Fri 06:18:45 PM 42.4608 -87.0872 249° West 271 312 10,100 -1,113 Descending Chicago Center
Fri 06:19:47 PM 42.4322 -87.1939 250° West 253 291 9,000 -532 Descending Chicago Center
Fri 06:20:49 PM 42.4058 -87.2817 248° West 253 291 9,000  Level Chicago Center
Fri 06:21:51 PM 42.3786 -87.3714 248° West 257 296 9,000  Level Chicago Center
Fri 06:22:53 PM 42.3472 -87.4653 246° West 248 285 9,000 -192 Level Chicago Center
Fri 06:23:56 PM 42.3069 -87.5397 234° Southwest 247 284 8,600 -960 Descending Chicago Center
Fri 06:24:58 PM 42.2633 -87.6061 228° Southwest 239 275 7,000 -1,113 Descending Chicago Center
Fri 06:26:00 PM 42.2114 -87.6592 217° Southwest 236 272 6,300 -919 Descending Chicago Center
Fri 06:27:02 PM 42.1633 -87.7131 220° Southwest 230 265 5,100 -1,161 Descending Chicago Center

Login

Don't have an account? Register now (free) for customized features, flight alerts, and more!